createdAt,value
2022-09-03T00:00:52.690Z,66.48
2022-09-03T00:01:47.889Z,66.09
2022-09-03T00:02:44.172Z,64.33
2022-09-03T00:03:39.628Z,64.04
2022-09-03T00:04:35.069Z,64.41
2022-09-03T00:05:30.244Z,64.29
2022-09-03T00:06:25.430Z,65.50
2022-09-03T00:07:21.218Z,64.64
2022-09-03T00:08:16.388Z,65.47
2022-09-03T00:09:12.374Z,64.94
2022-09-03T00:10:07.519Z,63.19
2022-09-03T00:11:02.818Z,64.57
2022-09-03T00:11:58.696Z,64.68
2022-09-03T00:12:53.861Z,65.75
2022-09-03T00:13:49.138Z,65.77
2022-09-03T00:14:45.294Z,65.91
2022-09-03T00:15:40.475Z,64.75
2022-09-03T00:16:36.325Z,63.28
2022-09-03T00:17:31.602Z,62.91
2022-09-03T00:18:26.936Z,63.33
2022-09-03T00:19:21.943Z,64.02
2022-09-03T00:20:17.245Z,64.34
2022-09-03T00:21:13.764Z,64.93
2022-09-03T00:22:09.061Z,65.04
2022-09-03T00:23:04.920Z,64.78
2022-09-03T00:24:00.054Z,65.09
2022-09-03T00:24:55.223Z,65.46
2022-09-03T00:25:50.962Z,65.46
2022-09-03T00:26:46.272Z,65.66
2022-09-03T00:27:42.217Z,65.96
2022-09-03T00:28:37.246Z,66.05
2022-09-03T00:29:32.733Z,66.23
2022-09-03T00:30:28.462Z,66.09
2022-09-03T00:31:23.852Z,66.08
2022-09-03T00:32:19.092Z,65.23
2022-09-03T00:33:15.518Z,65.98
2022-09-03T00:34:10.680Z,66.04
2022-09-03T00:35:06.565Z,65.98
2022-09-03T00:36:01.692Z,64.77
2022-09-03T00:36:57.094Z,64.35
2022-09-03T00:37:52.134Z,64.75
2022-09-03T00:38:47.428Z,65.00
2022-09-03T00:39:42.739Z,65.90
2022-09-03T00:40:40.613Z,66.09
2022-09-03T00:41:35.892Z,66.27
2022-09-03T00:42:31.318Z,66.02
2022-09-03T00:43:26.478Z,66.08
2022-09-03T00:44:21.487Z,66.36
2022-09-03T00:45:16.549Z,66.07
2022-09-03T00:46:11.650Z,66.09
2022-09-03T00:47:06.667Z,66.06
2022-09-03T00:48:01.714Z,66.12
2022-09-03T00:48:56.717Z,66.18
2022-09-03T00:49:51.774Z,65.65
2022-09-03T00:50:46.806Z,64.05
2022-09-03T00:51:41.815Z,64.23
2022-09-03T00:52:36.848Z,65.10
2022-09-03T00:53:31.902Z,64.36
2022-09-03T00:54:26.894Z,65.14
2022-09-03T00:55:22.063Z,64.69
2022-09-03T00:56:16.932Z,64.57
2022-09-03T00:57:12.013Z,64.24
2022-09-03T00:58:07.186Z,65.38
2022-09-03T00:59:02.255Z,64.20
2022-09-03T00:59:57.286Z,63.32
2022-09-03T01:00:52.284Z,64.04
2022-09-03T01:01:47.409Z,64.80
2022-09-03T01:02:42.456Z,65.04
2022-09-03T01:03:37.331Z,64.61
2022-09-03T01:04:32.381Z,64.01
2022-09-03T01:05:27.386Z,64.03
2022-09-03T01:06:22.400Z,65.03
2022-09-03T01:07:17.411Z,65.12
2022-09-03T01:08:12.569Z,65.37
2022-09-03T01:09:07.975Z,65.11
2022-09-03T01:10:02.999Z,65.29
2022-09-03T01:10:58.279Z,65.43
2022-09-03T01:11:53.440Z,65.30
2022-09-03T01:12:48.707Z,65.11
2022-09-03T01:13:43.974Z,64.41
2022-09-03T01:14:39.390Z,64.68
2022-09-03T01:15:34.412Z,65.03
2022-09-03T01:16:29.718Z,65.40
2022-09-03T01:17:24.868Z,65.07
2022-09-03T01:18:20.081Z,65.39
2022-09-03T01:19:15.268Z,64.66
2022-09-03T01:20:10.407Z,65.06
2022-09-03T01:21:05.818Z,65.41
2022-09-03T01:22:00.956Z,65.27
2022-09-03T01:22:56.227Z,65.43
2022-09-03T01:23:51.380Z,65.09
2022-09-03T01:24:46.807Z,65.22
2022-09-03T01:25:41.936Z,65.51
2022-09-03T01:26:37.092Z,65.51
2022-09-03T01:27:32.374Z,65.21
2022-09-03T01:28:27.525Z,65.12
2022-09-03T01:29:22.794Z,65.25
2022-09-03T01:30:18.098Z,65.08
2022-09-03T01:31:13.312Z,65.28
2022-09-03T01:32:08.554Z,65.45
2022-09-03T01:33:03.824Z,65.39
2022-09-03T01:33:58.983Z,65.35
2022-09-03T01:34:54.144Z,65.54
2022-09-03T01:35:49.292Z,65.56
2022-09-03T01:36:44.556Z,65.38
2022-09-03T01:37:39.959Z,65.63
2022-09-03T01:38:35.094Z,65.62
2022-09-03T01:39:30.386Z,65.82
2022-09-03T01:40:25.726Z,65.13
2022-09-03T01:41:20.724Z,65.67
2022-09-03T01:42:16.004Z,65.64
2022-09-03T01:43:14.745Z,65.81
2022-09-03T01:44:08.822Z,65.84
2022-09-03T01:45:03.992Z,65.39
2022-09-03T01:45:59.194Z,65.57
2022-09-03T01:46:54.580Z,65.97
2022-09-03T01:47:49.835Z,65.98
2022-09-03T01:48:45.010Z,65.56
2022-09-03T01:49:40.038Z,64.89
2022-09-03T01:50:35.100Z,65.33
2022-09-03T01:51:30.087Z,64.91
2022-09-03T01:52:25.211Z,65.01
2022-09-03T01:53:20.243Z,65.22
2022-09-03T01:54:20.687Z,65.50
2022-09-03T01:55:11.358Z,65.80
2022-09-03T01:56:05.430Z,66.00
2022-09-03T01:57:00.987Z,65.89
2022-09-03T01:57:56.179Z,65.62
2022-09-03T01:58:51.317Z,65.73
2022-09-03T01:59:46.710Z,65.70
2022-09-03T02:00:41.840Z,66.08
2022-09-03T02:01:37.127Z,65.96
2022-09-03T02:02:32.338Z,65.96
2022-09-03T02:03:27.477Z,65.78
2022-09-03T02:04:23.494Z,65.35
2022-09-03T02:05:18.646Z,65.48
2022-09-03T02:06:13.802Z,65.91
2022-09-03T02:07:09.674Z,65.58
2022-09-03T02:08:04.976Z,65.32
2022-09-03T02:09:00.921Z,65.15
2022-09-03T02:09:56.033Z,65.87
2022-09-03T02:10:51.202Z,65.45
2022-09-03T02:11:47.073Z,65.04
2022-09-03T02:12:42.362Z,65.17
2022-09-03T02:13:37.784Z,65.74
2022-09-03T02:14:33.921Z,65.62
2022-09-03T02:15:29.237Z,65.91
2022-09-03T02:16:25.080Z,65.98
2022-09-03T02:17:20.341Z,65.97
2022-09-03T02:18:15.678Z,66.23
2022-09-03T02:19:11.285Z,66.46
2022-09-03T02:20:06.433Z,66.64
2022-09-03T02:21:02.279Z,66.40
2022-09-03T02:21:57.549Z,66.73
2022-09-03T02:22:53.006Z,66.53
2022-09-03T02:23:48.608Z,66.05
2022-09-03T02:24:43.889Z,66.07
2022-09-03T02:25:39.048Z,66.47
2022-09-03T02:26:35.568Z,66.41
2022-09-03T02:27:30.895Z,66.00
2022-09-03T02:28:26.772Z,66.06
2022-09-03T02:29:21.899Z,66.29
2022-09-03T02:30:17.086Z,66.60
2022-09-03T02:31:12.997Z,66.76
2022-09-03T02:32:08.237Z,66.90
2022-09-03T02:33:04.068Z,66.97
2022-09-03T02:33:59.350Z,67.22
2022-09-03T02:34:54.539Z,67.52
2022-09-03T02:35:50.375Z,67.01
2022-09-03T02:36:45.555Z,66.94
2022-09-03T02:37:40.817Z,66.96
2022-09-03T02:38:37.336Z,67.29
2022-09-03T02:39:36.162Z,67.21
2022-09-03T02:40:29.246Z,67.21
2022-09-03T02:41:23.445Z,67.19
2022-09-03T02:42:18.588Z,67.32
2022-09-03T02:43:14.466Z,67.31
2022-09-03T02:44:09.800Z,67.47
2022-09-03T02:45:05.631Z,67.15
2022-09-03T02:46:00.825Z,67.21
2022-09-03T02:46:56.124Z,67.31
2022-09-03T02:47:52.005Z,67.44
2022-09-03T02:48:47.182Z,67.70
2022-09-03T02:49:42.448Z,67.69
2022-09-03T02:50:38.849Z,67.58
2022-09-03T02:51:34.153Z,67.57
2022-09-03T02:52:30.016Z,67.66
2022-09-03T02:53:25.302Z,67.64
2022-09-03T02:54:21.269Z,67.74
2022-09-03T02:55:16.213Z,67.65
2022-09-03T02:56:11.524Z,67.63
2022-09-03T02:57:07.251Z,67.68
2022-09-03T02:58:02.511Z,67.66
2022-09-03T02:58:57.959Z,67.67
2022-09-03T02:59:53.684Z,67.81
2022-09-03T03:00:48.968Z,67.82
2022-09-03T03:01:44.162Z,67.67
2022-09-03T03:02:40.565Z,67.93
2022-09-03T03:03:35.744Z,67.81
2022-09-03T03:04:31.048Z,67.79
2022-09-03T03:05:26.181Z,68.09
2022-09-03T03:06:22.056Z,68.08
2022-09-03T03:07:17.359Z,68.19
2022-09-03T03:08:13.206Z,68.31
2022-09-03T03:09:08.465Z,68.22
2022-09-03T03:10:03.875Z,67.98
2022-09-03T03:10:59.596Z,68.11
2022-09-03T03:11:54.880Z,67.85
2022-09-03T03:12:50.216Z,67.73
2022-09-03T03:13:46.459Z,67.77
2022-09-03T03:14:41.766Z,68.27
2022-09-03T03:15:37.606Z,68.16
2022-09-03T03:16:32.911Z,68.28
2022-09-03T03:17:28.055Z,68.15
2022-09-03T03:18:24.195Z,68.40
2022-09-03T03:19:19.154Z,68.38
2022-09-03T03:20:15.004Z,68.32
2022-09-03T03:21:10.252Z,68.19
2022-09-03T03:22:05.403Z,68.08
2022-09-03T03:23:00.700Z,68.00
2022-09-03T03:23:55.981Z,67.69
2022-09-03T03:24:51.120Z,67.64
2022-09-03T03:25:46.409Z,67.73
2022-09-03T03:26:42.269Z,67.86
2022-09-03T03:27:37.533Z,67.84
2022-09-03T03:28:32.830Z,68.01
2022-09-03T03:29:28.556Z,67.99
2022-09-03T03:30:23.816Z,68.15
2022-09-03T03:31:19.036Z,68.19
2022-09-03T03:32:14.178Z,68.13
2022-09-03T03:33:09.299Z,68.59
2022-09-03T03:34:04.349Z,68.71
2022-09-03T03:34:59.359Z,68.53
2022-09-03T03:35:54.517Z,68.54
2022-09-03T03:36:49.571Z,69.06
2022-09-03T03:37:44.717Z,69.04
2022-09-03T03:38:39.909Z,69.03
2022-09-03T03:39:34.946Z,69.11
2022-09-03T03:40:30.026Z,69.21
2022-09-03T03:41:25.036Z,69.46
2022-09-03T03:42:20.064Z,69.47
2022-09-03T03:43:15.106Z,69.78
2022-09-03T03:44:10.102Z,70.23
2022-09-03T03:45:05.168Z,70.14
2022-09-03T03:46:00.239Z,70.34
2022-09-03T03:46:55.154Z,70.68
2022-09-03T03:47:50.233Z,70.92
2022-09-03T03:48:48.803Z,70.89
2022-09-03T03:49:43.888Z,70.79
2022-09-03T03:50:38.937Z,70.90
2022-09-03T03:51:34.043Z,70.87
2022-09-03T03:52:29.155Z,70.87
2022-09-03T03:53:24.223Z,70.94
2022-09-03T03:54:19.324Z,71.09
2022-09-03T03:55:15.942Z,71.10
2022-09-03T03:56:09.417Z,71.32
2022-09-03T03:57:04.626Z,71.55
2022-09-03T03:57:59.859Z,71.76
2022-09-03T03:58:54.859Z,71.95
2022-09-03T03:59:55.628Z,72.28
2022-09-03T04:00:50.891Z,72.51
2022-09-03T04:01:46.238Z,72.61
2022-09-03T04:02:41.828Z,72.27
2022-09-03T04:03:36.904Z,72.13
2022-09-03T04:04:32.118Z,72.41
2022-09-03T04:05:28.305Z,72.27
2022-09-03T04:06:24.475Z,72.47
2022-09-03T04:07:19.298Z,72.43
2022-09-03T04:08:14.499Z,72.24
2022-09-03T04:09:09.626Z,72.28
2022-09-03T04:10:05.431Z,72.15
2022-09-03T04:11:00.579Z,71.78
2022-09-03T04:11:56.352Z,71.86
2022-09-03T04:12:51.561Z,72.12
2022-09-03T04:13:46.797Z,72.24
2022-09-03T04:14:42.601Z,72.57
2022-09-03T04:15:37.716Z,73.06
2022-09-03T04:16:33.047Z,74.07
2022-09-03T04:17:29.289Z,73.55
2022-09-03T04:18:24.642Z,73.35
2022-09-03T04:19:20.335Z,73.59
2022-09-03T04:20:15.423Z,73.88
2022-09-03T04:21:10.541Z,73.97
2022-09-03T04:22:06.353Z,74.62
2022-09-03T04:23:01.634Z,74.35
2022-09-03T04:23:57.616Z,74.50
2022-09-03T04:24:52.637Z,74.38
2022-09-03T04:25:48.049Z,73.93
2022-09-03T04:26:43.926Z,74.14
2022-09-03T04:27:39.247Z,74.30
2022-09-03T04:28:34.519Z,74.32
2022-09-03T04:29:30.892Z,74.37
2022-09-03T04:30:26.264Z,74.35
2022-09-03T04:31:21.962Z,75.11
2022-09-03T04:32:17.159Z,75.60
2022-09-03T04:33:16.069Z,76.00
2022-09-03T04:34:08.285Z,75.87
2022-09-03T04:35:03.586Z,76.07
2022-09-03T04:35:59.439Z,76.13
2022-09-03T04:36:54.690Z,76.26
2022-09-03T04:37:50.150Z,76.22
2022-09-03T04:38:45.728Z,76.37
2022-09-03T04:39:41.109Z,76.36
2022-09-03T04:40:36.249Z,76.08
2022-09-03T04:41:32.756Z,76.54
2022-09-03T04:42:28.081Z,76.41
2022-09-03T04:43:23.933Z,76.19
2022-09-03T04:44:19.059Z,76.53
2022-09-03T04:45:14.237Z,76.15
2022-09-03T04:46:16.236Z,76.20
2022-09-03T04:47:06.315Z,76.55
2022-09-03T04:48:01.107Z,77.06
2022-09-03T04:48:56.282Z,76.98
2022-09-03T04:49:51.632Z,76.78
2022-09-03T04:50:47.378Z,76.38
2022-09-03T04:51:42.596Z,76.58
2022-09-03T04:52:37.782Z,77.10
2022-09-03T04:53:34.274Z,76.94
2022-09-03T04:54:29.871Z,76.52
2022-09-03T04:55:25.204Z,76.95
2022-09-03T04:56:20.436Z,77.27
2022-09-03T04:57:15.633Z,77.17
2022-09-03T04:58:11.454Z,76.98
2022-09-03T04:59:06.653Z,76.87
2022-09-03T05:00:01.830Z,77.07
2022-09-03T05:00:57.175Z,77.12
2022-09-03T05:01:53.688Z,77.42
2022-09-03T05:02:48.857Z,77.87
2022-09-03T05:03:44.091Z,77.78
2022-09-03T05:04:39.883Z,77.65
2022-09-03T05:05:35.176Z,77.84
2022-09-03T05:06:31.005Z,78.24
2022-09-03T05:07:26.242Z,78.24
2022-09-03T05:08:21.716Z,78.55
2022-09-03T05:09:17.369Z,78.57
2022-09-03T05:10:12.660Z,78.55
2022-09-03T05:11:07.910Z,78.61
2022-09-03T05:12:04.440Z,78.50
2022-09-03T05:12:59.728Z,78.42
2022-09-03T05:13:55.533Z,78.40
2022-09-03T05:14:50.799Z,78.62
2022-09-03T05:15:46.077Z,78.56
2022-09-03T05:16:41.962Z,78.50
2022-09-03T05:17:37.846Z,78.66
2022-09-03T05:18:32.579Z,78.39
2022-09-03T05:19:27.857Z,78.56
2022-09-03T05:20:23.269Z,78.75
2022-09-03T05:21:18.539Z,78.27
2022-09-03T05:22:13.806Z,77.89
2022-09-03T05:23:09.188Z,77.92
2022-09-03T05:24:05.139Z,77.94
2022-09-03T05:25:00.388Z,77.66
2022-09-03T05:25:55.745Z,76.64
2022-09-03T05:26:50.865Z,76.42
2022-09-03T05:27:45.972Z,76.86
2022-09-03T05:28:41.101Z,76.40
2022-09-03T05:29:36.101Z,76.73
2022-09-03T05:30:31.192Z,76.97
2022-09-03T05:31:26.384Z,76.19
2022-09-03T05:32:21.388Z,76.23
2022-09-03T05:33:16.434Z,76.93
2022-09-03T05:34:16.448Z,77.17
2022-09-03T05:35:07.574Z,77.32
2022-09-03T05:36:01.573Z,77.11
2022-09-03T05:36:56.681Z,77.14
2022-09-03T05:37:51.755Z,77.70
2022-09-03T05:38:46.886Z,77.68
2022-09-03T05:39:42.065Z,77.68
2022-09-03T05:40:37.060Z,77.87
2022-09-03T05:41:32.181Z,77.93
2022-09-03T05:42:27.229Z,77.85
2022-09-03T05:43:22.315Z,78.00
2022-09-03T05:44:17.318Z,77.92
2022-09-03T05:45:12.354Z,77.69
2022-09-03T05:46:07.846Z,77.37
2022-09-03T05:47:03.169Z,77.04
2022-09-03T05:47:58.622Z,77.27
2022-09-03T05:48:54.177Z,76.98
2022-09-03T05:49:49.628Z,77.00
2022-09-03T05:50:45.029Z,77.20
2022-09-03T05:51:40.449Z,77.16
2022-09-03T05:52:35.867Z,77.16
2022-09-03T05:53:31.318Z,77.12
2022-09-03T05:54:26.748Z,76.62
2022-09-03T05:55:26.088Z,76.31
2022-09-03T05:56:21.403Z,76.51
2022-09-03T05:57:16.399Z,76.62
2022-09-03T05:58:11.558Z,76.73
2022-09-03T05:59:06.477Z,76.82
2022-09-03T06:00:01.483Z,76.76
2022-09-03T06:00:56.524Z,76.53
2022-09-03T06:01:54.660Z,76.54
2022-09-03T06:02:48.473Z,76.91
2022-09-03T06:03:42.829Z,76.77
2022-09-03T06:04:38.106Z,76.82
2022-09-03T06:05:33.484Z,76.45
2022-09-03T06:06:28.866Z,76.32
2022-09-03T06:07:24.373Z,75.82
2022-09-03T06:08:19.615Z,75.42
2022-09-03T06:09:14.950Z,75.00
2022-09-03T06:10:10.332Z,75.22
2022-09-03T06:11:05.686Z,75.13
2022-09-03T06:12:03.851Z,75.06
2022-09-03T06:12:56.442Z,74.90
2022-09-03T06:13:51.770Z,74.68
2022-09-03T06:14:47.149Z,74.40
2022-09-03T06:15:42.311Z,74.27
2022-09-03T06:16:37.406Z,74.09
2022-09-03T06:17:32.371Z,74.10
2022-09-03T06:18:29.389Z,74.11
2022-09-03T06:19:24.456Z,74.14
2022-09-03T06:20:19.678Z,74.30
2022-09-03T06:21:14.662Z,74.64
2022-09-03T06:22:09.735Z,74.78
2022-09-03T06:23:04.720Z,74.87
2022-09-03T06:24:00.264Z,75.17
2022-09-03T06:24:54.835Z,75.12
2022-09-03T06:25:50.104Z,74.96
2022-09-03T06:26:45.051Z,74.55
2022-09-03T06:27:40.101Z,74.30
2022-09-03T06:28:35.095Z,74.05
2022-09-03T06:29:30.097Z,73.92
2022-09-03T06:30:25.365Z,74.15
2022-09-03T06:31:20.745Z,74.10
2022-09-03T06:32:16.164Z,74.30
2022-09-03T06:33:11.635Z,74.46
2022-09-03T06:34:07.036Z,74.23
2022-09-03T06:35:02.074Z,74.07
2022-09-03T06:35:57.114Z,73.78
2022-09-03T06:36:52.136Z,72.93
2022-09-03T06:37:47.213Z,72.72
2022-09-03T06:38:42.209Z,72.64
2022-09-03T06:39:37.279Z,72.66
2022-09-03T06:40:32.333Z,72.52
2022-09-03T06:41:27.357Z,72.60
2022-09-03T06:42:22.395Z,72.98
2022-09-03T06:43:17.386Z,73.15
2022-09-03T06:44:12.434Z,72.95
2022-09-03T06:45:07.831Z,73.12
2022-09-03T06:46:03.274Z,73.15
2022-09-03T06:46:58.642Z,73.24
2022-09-03T06:47:54.055Z,73.46
2022-09-03T06:48:49.466Z,73.49
2022-09-03T06:49:44.913Z,73.38
2022-09-03T06:50:40.310Z,73.13
2022-09-03T06:51:35.869Z,73.08
2022-09-03T06:52:31.191Z,72.89
2022-09-03T06:53:26.627Z,72.95
2022-09-03T06:54:23.068Z,72.87
2022-09-03T06:55:17.588Z,72.82
2022-09-03T06:56:13.048Z,72.99
2022-09-03T06:57:08.781Z,73.13
2022-09-03T06:58:03.692Z,73.11
2022-09-03T06:58:58.761Z,73.15
2022-09-03T06:59:53.848Z,73.09
2022-09-03T07:00:49.032Z,72.94
2022-09-03T07:01:45.460Z,72.73
2022-09-03T07:02:42.850Z,72.83
2022-09-03T07:03:35.270Z,72.62
2022-09-03T07:04:29.393Z,72.83
2022-09-03T07:05:24.456Z,72.89
2022-09-03T07:06:19.547Z,73.33
2022-09-03T07:07:16.775Z,73.69
2022-09-03T07:08:12.312Z,74.01
2022-09-03T07:09:07.753Z,74.19
2022-09-03T07:10:03.380Z,74.30
2022-09-03T07:10:58.831Z,74.37
2022-09-03T07:11:54.274Z,74.15
2022-09-03T07:12:49.782Z,73.93
2022-09-03T07:13:45.237Z,73.79
2022-09-03T07:14:40.764Z,73.58
2022-09-03T07:15:36.014Z,73.64
2022-09-03T07:16:31.502Z,73.48
2022-09-03T07:17:26.971Z,73.35
2022-09-03T07:18:22.512Z,73.10
2022-09-03T07:19:18.156Z,73.11
2022-09-03T07:20:13.641Z,73.21
2022-09-03T07:21:08.679Z,73.28
2022-09-03T07:22:03.729Z,73.17
2022-09-03T07:22:58.820Z,73.15
2022-09-03T07:23:53.878Z,73.10
2022-09-03T07:24:49.031Z,73.07
2022-09-03T07:25:43.994Z,73.36
2022-09-03T07:26:39.069Z,73.35
2022-09-03T07:27:34.151Z,73.56
2022-09-03T07:28:29.230Z,73.69
2022-09-03T07:29:24.453Z,73.59
2022-09-03T07:30:22.413Z,73.64
2022-09-03T07:31:17.512Z,73.67
2022-09-03T07:32:12.611Z,73.74
2022-09-03T07:33:07.733Z,73.77
2022-09-03T07:34:02.794Z,73.96
2022-09-03T07:34:57.807Z,74.02
2022-09-03T07:35:53.193Z,74.16
2022-09-03T07:36:49.041Z,74.06
2022-09-03T07:37:44.136Z,73.89
2022-09-03T07:38:39.758Z,73.94
2022-09-03T07:39:35.304Z,74.10
2022-09-03T07:40:30.708Z,73.74
2022-09-03T07:41:28.769Z,73.89
2022-09-03T07:42:21.471Z,74.09
2022-09-03T07:43:17.225Z,73.84
2022-09-03T07:44:12.584Z,73.58
2022-09-03T07:45:08.060Z,73.29
2022-09-03T07:46:03.640Z,73.26
2022-09-03T07:46:59.145Z,73.79
2022-09-03T07:47:54.629Z,74.05
2022-09-03T07:48:50.124Z,74.27
2022-09-03T07:49:45.593Z,74.21
2022-09-03T07:50:41.113Z,74.48
2022-09-03T07:51:36.602Z,74.36
2022-09-03T07:52:32.082Z,74.59
2022-09-03T07:53:27.600Z,74.71
2022-09-03T07:54:23.180Z,74.58
2022-09-03T07:55:18.791Z,74.34
2022-09-03T07:56:13.702Z,74.48
2022-09-03T07:57:08.701Z,74.57
2022-09-03T07:58:03.861Z,74.23
2022-09-03T07:58:58.949Z,74.04
2022-09-03T07:59:54.069Z,74.08
2022-09-03T08:00:49.205Z,74.70
2022-09-03T08:01:44.197Z,74.95
2022-09-03T08:02:41.972Z,74.93
2022-09-03T08:03:35.369Z,75.09
2022-09-03T08:04:29.359Z,75.08
2022-09-03T08:05:24.457Z,75.00
2022-09-03T08:06:20.867Z,75.19
2022-09-03T08:07:16.370Z,75.19
2022-09-03T08:08:11.844Z,74.96
2022-09-03T08:09:07.468Z,75.25
2022-09-03T08:10:02.835Z,75.47
2022-09-03T08:10:58.345Z,75.38
2022-09-03T08:11:53.948Z,75.17
2022-09-03T08:12:49.267Z,75.01
2022-09-03T08:13:44.728Z,75.20
2022-09-03T08:14:40.211Z,75.20
2022-09-03T08:15:35.856Z,75.32
2022-09-03T08:16:31.369Z,75.50
2022-09-03T08:17:26.755Z,75.96
2022-09-03T08:18:22.294Z,76.03
2022-09-03T08:19:17.287Z,75.72
2022-09-03T08:20:12.367Z,75.59
2022-09-03T08:21:07.532Z,75.64
2022-09-03T08:22:02.487Z,75.07
2022-09-03T08:22:57.555Z,74.14
2022-09-03T08:23:52.605Z,74.57
2022-09-03T08:24:47.715Z,74.59
2022-09-03T08:25:42.812Z,74.82
2022-09-03T08:26:37.879Z,74.77
2022-09-03T08:27:32.988Z,74.74
2022-09-03T08:28:28.062Z,74.80
2022-09-03T08:29:23.289Z,75.04
2022-09-03T08:30:21.235Z,75.23
2022-09-03T08:31:16.326Z,75.36
2022-09-03T08:32:11.623Z,75.29
2022-09-03T08:33:06.451Z,75.02
2022-09-03T08:34:01.503Z,74.91
2022-09-03T08:34:56.592Z,75.08
2022-09-03T08:35:51.662Z,75.08
2022-09-03T08:36:46.741Z,75.13
2022-09-03T08:37:41.802Z,74.97
2022-09-03T08:38:37.146Z,74.84
2022-09-03T08:39:33.490Z,74.71
2022-09-03T08:40:28.967Z,74.90
2022-09-03T08:41:24.859Z,74.73
2022-09-03T08:42:20.319Z,74.63
2022-09-03T08:43:15.753Z,74.68
2022-09-03T08:44:11.522Z,74.44
2022-09-03T08:45:07.008Z,73.94
2022-09-03T08:46:03.097Z,74.04
2022-09-03T08:46:58.391Z,73.94
2022-09-03T08:47:53.767Z,73.85
2022-09-03T08:48:49.730Z,73.65
2022-09-03T08:49:45.011Z,73.21
2022-09-03T08:50:40.532Z,72.80
2022-09-03T08:51:36.657Z,72.43
2022-09-03T08:52:32.195Z,72.32
2022-09-03T08:53:28.021Z,72.63
2022-09-03T08:54:23.377Z,72.67
2022-09-03T08:55:18.827Z,71.80
2022-09-03T08:56:14.522Z,70.99
2022-09-03T08:57:10.066Z,70.71
2022-09-03T08:58:05.867Z,70.25
2022-09-03T08:59:01.273Z,69.88
2022-09-03T08:59:56.603Z,69.67
2022-09-03T09:00:52.362Z,69.55
2022-09-03T09:01:47.973Z,69.32
2022-09-03T09:02:43.440Z,69.56
2022-09-03T09:03:39.782Z,69.48
2022-09-03T09:04:35.256Z,69.85
2022-09-03T09:05:31.268Z,69.98
2022-09-03T09:06:26.815Z,70.07
2022-09-03T09:07:22.261Z,70.55
2022-09-03T09:08:18.043Z,70.76
2022-09-03T09:09:13.533Z,70.89
2022-09-03T09:10:09.416Z,71.26
2022-09-03T09:11:04.798Z,71.80
2022-09-03T09:12:00.288Z,72.36
2022-09-03T09:12:56.119Z,72.62
2022-09-03T09:13:51.470Z,72.49
2022-09-03T09:14:47.002Z,72.49
2022-09-03T09:15:43.247Z,72.41
2022-09-03T09:16:38.724Z,72.04
2022-09-03T09:17:34.769Z,72.33
2022-09-03T09:18:30.129Z,72.61
2022-09-03T09:19:25.575Z,72.56
2022-09-03T09:20:21.389Z,72.01
2022-09-03T09:21:21.394Z,72.22
2022-09-03T09:22:13.890Z,71.96
2022-09-03T09:23:08.269Z,71.99
2022-09-03T09:24:03.708Z,72.08
2022-09-03T09:25:00.165Z,72.06
2022-09-03T09:25:55.467Z,72.31
2022-09-03T09:26:50.915Z,72.28
2022-09-03T09:29:10.648Z,73.52
2022-09-03T09:30:06.002Z,73.20
2022-09-03T09:31:01.530Z,72.95
2022-09-03T09:31:57.019Z,72.64
2022-09-03T09:32:52.481Z,72.24
2022-09-03T09:33:47.992Z,71.98
2022-09-03T09:34:43.393Z,71.44
2022-09-03T09:35:38.823Z,70.75
2022-09-03T09:36:34.222Z,70.26
2022-09-03T09:37:29.902Z,69.54
2022-09-03T09:38:25.576Z,69.22
2022-09-03T09:39:21.030Z,68.84
2022-09-03T09:40:16.592Z,68.85
2022-09-03T09:41:12.152Z,68.50
2022-09-03T09:42:07.662Z,67.77
2022-09-03T09:43:03.199Z,67.96
2022-09-03T09:43:58.604Z,67.48
2022-09-03T09:44:53.979Z,67.21
2022-09-03T09:45:49.518Z,66.67
2022-09-03T09:46:45.253Z,65.98
2022-09-03T09:47:40.473Z,65.98
2022-09-03T09:48:35.892Z,65.37
2022-09-03T09:49:31.290Z,65.38
2022-09-03T09:50:26.946Z,65.35
2022-09-03T09:51:22.352Z,65.41
2022-09-03T09:52:17.857Z,65.80
2022-09-03T09:53:13.262Z,66.33
2022-09-03T09:54:08.886Z,66.20
2022-09-03T09:55:04.272Z,66.27
2022-09-03T09:55:59.809Z,65.67
2022-09-03T09:56:55.348Z,65.57
2022-09-03T09:57:50.728Z,64.84
2022-09-03T09:58:46.385Z,64.83
2022-09-03T09:59:41.650Z,64.95
2022-09-03T10:00:37.025Z,65.17
2022-09-03T10:01:32.887Z,65.32
2022-09-03T10:02:28.457Z,66.19
2022-09-03T10:03:23.710Z,66.86
2022-09-03T10:04:19.099Z,67.02
2022-09-03T10:05:14.491Z,67.23
2022-09-03T10:06:09.881Z,67.24
2022-09-03T10:07:05.395Z,67.03
2022-09-03T10:08:00.965Z,66.62
2022-09-03T10:08:56.211Z,66.32
2022-09-03T10:09:51.606Z,67.12
2022-09-03T10:10:46.991Z,67.24
2022-09-03T10:11:42.533Z,67.20
2022-09-03T10:12:38.025Z,67.20
2022-09-03T10:13:33.565Z,66.93
2022-09-03T10:14:28.979Z,66.49
2022-09-03T10:15:24.628Z,66.11
2022-09-03T10:16:20.190Z,66.12
2022-09-03T10:17:15.515Z,66.29
2022-09-03T10:18:11.037Z,66.36
2022-09-03T10:19:06.575Z,66.53
2022-09-03T10:20:02.104Z,66.74
2022-09-03T10:20:57.611Z,66.81
2022-09-03T10:21:53.260Z,66.95
2022-09-03T10:22:56.977Z,67.36
2022-09-03T10:23:45.310Z,67.36
2022-09-03T10:24:39.712Z,67.25
2022-09-03T10:25:35.133Z,67.66
2022-09-03T10:26:32.067Z,67.77
2022-09-03T10:27:26.274Z,67.67
2022-09-03T10:28:21.762Z,67.53
2022-09-03T10:29:17.299Z,67.57
2022-09-03T10:30:12.693Z,66.80
2022-09-03T10:31:08.149Z,66.04
2022-09-03T10:32:03.618Z,66.16
2022-09-03T10:32:59.008Z,66.74
2022-09-03T10:33:54.513Z,66.32
2022-09-03T10:34:50.070Z,65.30
2022-09-03T10:35:45.579Z,65.50
2022-09-03T10:36:41.090Z,65.89
2022-09-03T10:37:36.556Z,66.41
2022-09-03T10:38:32.067Z,66.70
2022-09-03T10:39:27.760Z,66.40
2022-09-03T10:40:23.097Z,66.47
2022-09-03T10:41:18.592Z,66.23
2022-09-03T10:42:14.106Z,65.65
2022-09-03T10:43:09.644Z,66.11
2022-09-03T10:44:05.218Z,65.91
2022-09-03T10:45:00.747Z,65.76
2022-09-03T10:45:56.151Z,65.39
2022-09-03T10:46:51.748Z,64.93
2022-09-03T10:47:47.180Z,64.99
2022-09-03T10:48:42.607Z,64.03
2022-09-03T10:49:38.114Z,62.55
2022-09-03T10:50:33.718Z,61.41
2022-09-03T10:51:29.088Z,61.02
2022-09-03T10:52:24.588Z,60.31
2022-09-03T10:53:19.978Z,59.86
2022-09-03T10:54:15.690Z,59.27
2022-09-03T10:55:10.926Z,58.71
2022-09-03T10:56:06.440Z,59.21
2022-09-03T10:57:01.855Z,58.79
2022-09-03T10:57:57.368Z,58.64
2022-09-03T10:58:53.206Z,59.03
2022-09-03T10:59:48.435Z,59.32
2022-09-03T11:00:43.945Z,58.62
2022-09-03T11:01:39.685Z,58.65
2022-09-03T11:02:35.171Z,57.08
2022-09-03T11:03:30.535Z,57.63
2022-09-03T11:04:26.287Z,56.97
2022-09-03T11:05:21.535Z,57.42
2022-09-03T11:06:17.053Z,57.63
2022-09-03T11:07:12.563Z,57.28
2022-09-03T11:08:08.165Z,56.78
2022-09-03T11:09:06.660Z,56.06
2022-09-03T11:09:59.238Z,56.30
2022-09-03T11:10:54.732Z,56.53
2022-09-03T11:11:50.224Z,56.39
2022-09-03T11:12:45.891Z,56.33
2022-09-03T11:13:41.514Z,55.44
2022-09-03T11:14:36.895Z,54.97
2022-09-03T11:15:32.415Z,54.49
2022-09-03T11:16:27.951Z,54.55
2022-09-03T11:17:23.375Z,55.49
2022-09-03T11:18:19.041Z,55.47
2022-09-03T11:19:14.298Z,54.93
2022-09-03T11:20:09.860Z,54.88
2022-09-03T11:21:07.668Z,54.46
2022-09-03T11:22:01.374Z,54.23
2022-09-03T11:22:56.061Z,53.99
2022-09-03T11:23:55.042Z,53.77
2022-09-03T11:24:47.012Z,54.40
2022-09-03T11:25:42.450Z,54.69
2022-09-03T11:26:38.159Z,54.71
2022-09-03T11:27:33.392Z,55.03
2022-09-03T11:28:28.914Z,55.62
2022-09-03T11:29:24.300Z,54.91
2022-09-03T11:30:19.841Z,54.50
2022-09-03T11:31:15.434Z,54.36
2022-09-03T11:32:10.773Z,54.20
2022-09-03T11:33:06.271Z,54.00
2022-09-03T11:34:01.911Z,54.48
2022-09-03T11:34:57.188Z,55.05
2022-09-03T11:35:52.845Z,54.71
2022-09-03T11:36:48.388Z,54.62
2022-09-03T11:37:43.913Z,54.67
2022-09-03T11:38:39.425Z,54.65
2022-09-03T11:39:34.910Z,54.96
2022-09-03T11:40:30.278Z,55.47
2022-09-03T11:41:25.830Z,54.95
2022-09-03T11:42:21.340Z,54.69
2022-09-03T11:43:16.898Z,54.01
2022-09-03T11:44:12.563Z,54.02
2022-09-03T11:45:07.922Z,53.54
2022-09-03T11:46:03.659Z,53.39
2022-09-03T11:46:58.955Z,53.09
2022-09-03T11:47:54.740Z,53.33
2022-09-03T11:48:50.044Z,53.97
2022-09-03T11:49:45.649Z,54.41
2022-09-03T11:50:41.001Z,55.26
2022-09-03T11:51:36.459Z,55.77
2022-09-03T11:52:32.196Z,56.61
2022-09-03T11:53:27.531Z,57.13
2022-09-03T11:54:23.046Z,57.20
2022-09-03T11:55:18.655Z,57.43